sensor_id;sensor_type;location;lat;lon;timestamp;temperature;humidity
64634;DHT22;51043;52.406;9.690;2022-12-26T00:02:07;9.80;99.90
64634;DHT22;51043;52.406;9.690;2022-12-26T00:04:34;9.80;99.90
64634;DHT22;51043;52.406;9.690;2022-12-26T00:07:01;9.70;99.90
64634;DHT22;51043;52.406;9.690;2022-12-26T00:09:28;9.70;99.90
64634;DHT22;51043;52.406;9.690;2022-12-26T00:11:55;9.70;99.90
64634;DHT22;51043;52.406;9.690;2022-12-26T00:14:22;9.80;99.90
64634;DHT22;51043;52.406;9.690;2022-12-26T00:16:49;9.60;99.90
64634;DHT22;51043;52.406;9.690;2022-12-26T00:19:16;9.60;99.90
64634;DHT22;51043;52.406;9.690;2022-12-26T00:21:42;9.60;99.90
64634;DHT22;51043;52.406;9.690;2022-12-26T00:24:10;9.60;99.90
64634;DHT22;51043;52.406;9.690;2022-12-26T00:26:37;9.60;99.90
64634;DHT22;51043;52.406;9.690;2022-12-26T00:29:04;9.50;99.90
64634;DHT22;51043;52.406;9.690;2022-12-26T00:31:33;9.50;99.90
64634;DHT22;51043;52.406;9.690;2022-12-26T00:34:01;9.50;99.90
64634;DHT22;51043;52.406;9.690;2022-12-26T00:36:31;9.50;99.90
64634;DHT22;51043;52.406;9.690;2022-12-26T00:39:00;9.50;99.90
64634;DHT22;51043;52.406;9.690;2022-12-26T00:41:28;9.50;99.90
64634;DHT22;51043;52.406;9.690;2022-12-26T00:43:56;9.40;99.90
64634;DHT22;51043;52.406;9.690;2022-12-26T00:46:24;9.40;99.90
64634;DHT22;51043;52.406;9.690;2022-12-26T00:48:51;9.50;99.90
64634;DHT22;51043;52.406;9.690;2022-12-26T00:51:19;9.50;99.90
64634;DHT22;51043;52.406;9.690;2022-12-26T00:53:46;9.50;99.90
64634;DHT22;51043;52.406;9.690;2022-12-26T00:56:12;9.50;99.90
64634;DHT22;51043;52.406;9.690;2022-12-26T00:58:39;9.50;99.90
64634;DHT22;51043;52.406;9.690;2022-12-26T01:01:19;9.50;99.90
64634;DHT22;51043;52.406;9.690;2022-12-26T01:03:47;9.60;99.90
64634;DHT22;51043;52.406;9.690;2022-12-26T01:06:15;9.60;99.90
64634;DHT22;51043;52.406;9.690;2022-12-26T01:08:42;9.60;99.90
64634;DHT22;51043;52.406;9.690;2022-12-26T01:11:12;9.50;99.90
64634;DHT22;51043;52.406;9.690;2022-12-26T01:13:40;9.50;99.90
64634;DHT22;51043;52.406;9.690;2022-12-26T01:16:07;9.50;99.90
64634;DHT22;51043;52.406;9.690;2022-12-26T01:18:34;9.40;99.90
64634;DHT22;51043;52.406;9.690;2022-12-26T01:21:04;9.50;99.90
64634;DHT22;51043;52.406;9.690;2022-12-26T01:23:31;9.50;99.90
64634;DHT22;51043;52.406;9.690;2022-12-26T01:25:58;9.50;99.90
64634;DHT22;51043;52.406;9.690;2022-12-26T01:28:25;9.50;99.90
64634;DHT22;51043;52.406;9.690;2022-12-26T01:30:52;9.50;99.90
64634;DHT22;51043;52.406;9.690;2022-12-26T01:33:18;9.50;99.90
64634;DHT22;51043;52.406;9.690;2022-12-26T01:35:52;9.50;99.90
64634;DHT22;51043;52.406;9.690;2022-12-26T01:38:20;9.50;99.90
64634;DHT22;51043;52.406;9.690;2022-12-26T01:40:48;9.50;99.90
64634;DHT22;51043;52.406;9.690;2022-12-26T01:43:15;9.40;99.90
64634;DHT22;51043;52.406;9.690;2022-12-26T01:45:45;9.40;99.90
64634;DHT22;51043;52.406;9.690;2022-12-26T01:48:19;9.50;99.90
64634;DHT22;51043;52.406;9.690;2022-12-26T01:53:44;9.40;99.90
64634;DHT22;51043;52.406;9.690;2022-12-26T01:56:25;9.40;99.90
64634;DHT22;51043;52.406;9.690;2022-12-26T01:58:59;9.40;99.90
64634;DHT22;51043;52.406;9.690;2022-12-26T02:01:29;9.40;99.90
64634;DHT22;51043;52.406;9.690;2022-12-26T02:03:58;9.40;99.90
64634;DHT22;51043;52.406;9.690;2022-12-26T02:06:46;9.30;99.90
64634;DHT22;51043;52.406;9.690;2022-12-26T02:09:14;9.30;99.90
64634;DHT22;51043;52.406;9.690;2022-12-26T02:11:45;9.20;99.90
64634;DHT22;51043;52.406;9.690;2022-12-26T02:14:13;9.20;99.90
64634;DHT22;51043;52.406;9.690;2022-12-26T02:16:40;9.20;99.90
64634;DHT22;51043;52.406;9.690;2022-12-26T02:30:51;9.20;99.90
64634;DHT22;51043;52.406;9.690;2022-12-26T02:33:37;9.20;99.90
64634;DHT22;51043;52.406;9.690;2022-12-26T02:36:21;9.20;99.90
64634;DHT22;51043;52.406;9.690;2022-12-26T02:39:08;9.30;99.90
64634;DHT22;51043;52.406;9.690;2022-12-26T02:44:58;9.20;99.90
64634;DHT22;51043;52.406;9.690;2022-12-26T02:50:42;9.20;99.90
64634;DHT22;51043;52.406;9.690;2022-12-26T02:57:21;9.20;99.90
64634;DHT22;51043;52.406;9.690;2022-12-26T03:00:11;9.10;99.90
64634;DHT22;51043;52.406;9.690;2022-12-26T03:03:15;9.20;99.90
64634;DHT22;51043;52.406;9.690;2022-12-26T03:06:05;9.20;99.90
64634;DHT22;51043;52.406;9.690;2022-12-26T03:09:02;9.20;99.90
64634;DHT22;51043;52.406;9.690;2022-12-26T03:11:51;9.20;99.90
64634;DHT22;51043;52.406;9.690;2022-12-26T03:14:49;9.20;99.90
64634;DHT22;51043;52.406;9.690;2022-12-26T03:17:29;9.30;99.90
64634;DHT22;51043;52.406;9.690;2022-12-26T03:20:14;9.30;99.90
64634;DHT22;51043;52.406;9.690;2022-12-26T03:25:53;9.30;99.90
64634;DHT22;51043;52.406;9.690;2022-12-26T03:28:40;9.20;99.90
64634;DHT22;51043;52.406;9.690;2022-12-26T03:31:10;9.20;99.90
64634;DHT22;51043;52.406;9.690;2022-12-26T03:33:45;9.20;99.90
64634;DHT22;51043;52.406;9.690;2022-12-26T03:36:54;9.20;99.90
64634;DHT22;51043;52.406;9.690;2022-12-26T03:39:49;9.20;99.90
64634;DHT22;51043;52.406;9.690;2022-12-26T03:42:59;9.10;99.90
64634;DHT22;51043;52.406;9.690;2022-12-26T03:49:23;9.00;99.90
64634;DHT22;51043;52.406;9.690;2022-12-26T03:52:27;8.90;99.90
64634;DHT22;51043;52.406;9.690;2022-12-26T03:58:40;8.80;99.90
64634;DHT22;51043;52.406;9.690;2022-12-26T04:01:42;8.80;99.90
64634;DHT22;51043;52.406;9.690;2022-12-26T04:04:32;9.00;99.90
64634;DHT22;51043;52.406;9.690;2022-12-26T04:07:31;9.00;99.90
64634;DHT22;51043;52.406;9.690;2022-12-26T04:10:21;9.00;99.90
64634;DHT22;51043;52.406;9.690;2022-12-26T04:16:36;9.00;99.90
64634;DHT22;51043;52.406;9.690;2022-12-26T04:19:51;9.00;99.90
64634;DHT22;51043;52.406;9.690;2022-12-26T04:22:26;9.00;99.90
64634;DHT22;51043;52.406;9.690;2022-12-26T04:25:19;9.10;99.90
64634;DHT22;51043;52.406;9.690;2022-12-26T04:28:05;9.20;99.90
64634;DHT22;51043;52.406;9.690;2022-12-26T04:30:55;9.20;99.90
64634;DHT22;51043;52.406;9.690;2022-12-26T04:33:52;9.20;99.90
64634;DHT22;51043;52.406;9.690;2022-12-26T04:36:45;9.20;99.90
64634;DHT22;51043;52.406;9.690;2022-12-26T04:39:34;9.20;99.90
64634;DHT22;51043;52.406;9.690;2022-12-26T04:42:22;9.10;99.90
64634;DHT22;51043;52.406;9.690;2022-12-26T04:45:09;9.10;99.90
64634;DHT22;51043;52.406;9.690;2022-12-26T04:47:37;9.10;99.90
64634;DHT22;51043;52.406;9.690;2022-12-26T04:50:05;9.10;99.90
64634;DHT22;51043;52.406;9.690;2022-12-26T04:52:39;9.00;99.90
64634;DHT22;51043;52.406;9.690;2022-12-26T04:55:30;9.00;99.90
64634;DHT22;51043;52.406;9.690;2022-12-26T04:57:57;9.00;99.90
64634;DHT22;51043;52.406;9.690;2022-12-26T05:00:25;8.80;99.90
64634;DHT22;51043;52.406;9.690;2022-12-26T05:02:54;9.00;99.90
64634;DHT22;51043;52.406;9.690;2022-12-26T05:05:46;9.10;99.90
64634;DHT22;51043;52.406;9.690;2022-12-26T05:08:37;9.00;99.90
64634;DHT22;51043;52.406;9.690;2022-12-26T05:11:23;9.00;99.90
64634;DHT22;51043;52.406;9.690;2022-12-26T05:13:55;9.10;99.90
64634;DHT22;51043;52.406;9.690;2022-12-26T05:16:23;9.20;99.90
64634;DHT22;51043;52.406;9.690;2022-12-26T05:19:14;9.30;99.90
64634;DHT22;51043;52.406;9.690;2022-12-26T05:22:00;9.40;99.90
64634;DHT22;51043;52.406;9.690;2022-12-26T05:24:47;9.40;99.90
64634;DHT22;51043;52.406;9.690;2022-12-26T05:27:39;9.40;99.90
64634;DHT22;51043;52.406;9.690;2022-12-26T05:30:25;9.40;99.90
64634;DHT22;51043;52.406;9.690;2022-12-26T05:32:52;9.40;99.90
64634;DHT22;51043;52.406;9.690;2022-12-26T05:35:37;9.40;99.90
64634;DHT22;51043;52.406;9.690;2022-12-26T05:38:05;9.40;99.90
64634;DHT22;51043;52.406;9.690;2022-12-26T05:40:34;9.30;99.90
64634;DHT22;51043;52.406;9.690;2022-12-26T05:43:01;9.40;99.90
64634;DHT22;51043;52.406;9.690;2022-12-26T05:45:28;9.30;99.90
64634;DHT22;51043;52.406;9.690;2022-12-26T05:48:00;9.20;99.90
64634;DHT22;51043;52.406;9.690;2022-12-26T05:50:27;9.20;99.90
64634;DHT22;51043;52.406;9.690;2022-12-26T05:52:58;9.10;99.90
64634;DHT22;51043;52.406;9.690;2022-12-26T05:55:25;9.10;99.90
64634;DHT22;51043;52.406;9.690;2022-12-26T05:57:52;9.10;99.90
64634;DHT22;51043;52.406;9.690;2022-12-26T06:00:19;9.10;99.90
64634;DHT22;51043;52.406;9.690;2022-12-26T06:02:47;9.10;99.90
64634;DHT22;51043;52.406;9.690;2022-12-26T06:05:14;9.10;99.90
64634;DHT22;51043;52.406;9.690;2022-12-26T06:07:40;9.00;99.90
64634;DHT22;51043;52.406;9.690;2022-12-26T06:10:08;9.10;99.90
64634;DHT22;51043;52.406;9.690;2022-12-26T06:12:35;9.10;99.90
64634;DHT22;51043;52.406;9.690;2022-12-26T06:15:02;9.00;99.90
64634;DHT22;51043;52.406;9.690;2022-12-26T06:17:29;8.90;99.90
64634;DHT22;51043;52.406;9.690;2022-12-26T06:19:56;8.90;99.90
64634;DHT22;51043;52.406;9.690;2022-12-26T06:22:23;9.00;99.90
64634;DHT22;51043;52.406;9.690;2022-12-26T06:24:50;9.00;99.90
64634;DHT22;51043;52.406;9.690;2022-12-26T06:27:16;9.10;99.90
64634;DHT22;51043;52.406;9.690;2022-12-26T06:29:44;9.10;99.90
64634;DHT22;51043;52.406;9.690;2022-12-26T06:32:11;9.10;99.90
64634;DHT22;51043;52.406;9.690;2022-12-26T06:34:38;9.10;99.90
64634;DHT22;51043;52.406;9.690;2022-12-26T06:37:05;9.10;99.90
64634;DHT22;51043;52.406;9.690;2022-12-26T06:39:31;9.10;99.90
64634;DHT22;51043;52.406;9.690;2022-12-26T06:41:58;9.10;99.90
64634;DHT22;51043;52.406;9.690;2022-12-26T06:44:25;9.10;99.90
64634;DHT22;51043;52.406;9.690;2022-12-26T06:46:52;9.20;99.90
64634;DHT22;51043;52.406;9.690;2022-12-26T06:49:18;9.20;99.90
64634;DHT22;51043;52.406;9.690;2022-12-26T06:51:45;9.20;99.90
64634;DHT22;51043;52.406;9.690;2022-12-26T06:54:12;9.20;99.90
64634;DHT22;51043;52.406;9.690;2022-12-26T06:56:39;9.20;99.90
64634;DHT22;51043;52.406;9.690;2022-12-26T06:59:05;9.20;99.90
64634;DHT22;51043;52.406;9.690;2022-12-26T07:01:33;9.10;99.90
64634;DHT22;51043;52.406;9.690;2022-12-26T07:04:00;9.10;99.90
64634;DHT22;51043;52.406;9.690;2022-12-26T07:06:40;9.00;99.90
64634;DHT22;51043;52.406;9.690;2022-12-26T07:09:12;9.00;99.90
64634;DHT22;51043;52.406;9.690;2022-12-26T07:11:42;8.90;99.90
64634;DHT22;51043;52.406;9.690;2022-12-26T07:14:10;8.80;99.90
64634;DHT22;51043;52.406;9.690;2022-12-26T07:16:38;8.90;99.90
64634;DHT22;51043;52.406;9.690;2022-12-26T07:19:06;8.80;99.90
64634;DHT22;51043;52.406;9.690;2022-12-26T07:21:33;8.80;99.90
64634;DHT22;51043;52.406;9.690;2022-12-26T07:24:03;8.70;99.90
64634;DHT22;51043;52.406;9.690;2022-12-26T07:26:30;8.70;99.90
64634;DHT22;51043;52.406;9.690;2022-12-26T07:28:58;8.70;99.90
64634;DHT22;51043;52.406;9.690;2022-12-26T07:31:25;8.60;99.90
64634;DHT22;51043;52.406;9.690;2022-12-26T07:33:55;8.60;99.90
64634;DHT22;51043;52.406;9.690;2022-12-26T07:36:23;8.60;99.90
64634;DHT22;51043;52.406;9.690;2022-12-26T07:38:53;8.70;99.90
64634;DHT22;51043;52.406;9.690;2022-12-26T07:41:20;8.60;99.90
64634;DHT22;51043;52.406;9.690;2022-12-26T07:44:06;8.60;99.90
64634;DHT22;51043;52.406;9.690;2022-12-26T07:46:32;8.70;99.90
64634;DHT22;51043;52.406;9.690;2022-12-26T07:48:59;8.70;99.90
64634;DHT22;51043;52.406;9.690;2022-12-26T07:51:26;8.70;99.90
64634;DHT22;51043;52.406;9.690;2022-12-26T07:53:53;8.70;99.90
64634;DHT22;51043;52.406;9.690;2022-12-26T07:56:20;8.70;99.90
64634;DHT22;51043;52.406;9.690;2022-12-26T07:58:48;8.70;99.90
64634;DHT22;51043;52.406;9.690;2022-12-26T08:01:15;8.80;99.90
64634;DHT22;51043;52.406;9.690;2022-12-26T08:03:42;8.70;99.90
64634;DHT22;51043;52.406;9.690;2022-12-26T08:06:10;8.80;99.90
64634;DHT22;51043;52.406;9.690;2022-12-26T08:08:37;8.70;99.90
64634;DHT22;51043;52.406;9.690;2022-12-26T08:11:05;8.80;99.90
64634;DHT22;51043;52.406;9.690;2022-12-26T08:13:33;8.80;99.90
64634;DHT22;51043;52.406;9.690;2022-12-26T08:16:07;8.80;99.90
64634;DHT22;51043;52.406;9.690;2022-12-26T08:18:34;8.90;99.90
64634;DHT22;51043;52.406;9.690;2022-12-26T08:21:01;8.90;99.90
64634;DHT22;51043;52.406;9.690;2022-12-26T08:23:27;8.90;99.90
64634;DHT22;51043;52.406;9.690;2022-12-26T08:25:54;9.00;99.90
64634;DHT22;51043;52.406;9.690;2022-12-26T08:28:21;9.00;99.90
64634;DHT22;51043;52.406;9.690;2022-12-26T08:30:48;9.00;99.90
64634;DHT22;51043;52.406;9.690;2022-12-26T08:33:15;9.00;99.90
64634;DHT22;51043;52.406;9.690;2022-12-26T08:35:42;9.10;99.90
64634;DHT22;51043;52.406;9.690;2022-12-26T08:38:09;9.10;99.90
64634;DHT22;51043;52.406;9.690;2022-12-26T08:40:36;9.20;99.90
64634;DHT22;51043;52.406;9.690;2022-12-26T08:43:11;9.20;99.90
64634;DHT22;51043;52.406;9.690;2022-12-26T08:48:25;9.20;99.90
64634;DHT22;51043;52.406;9.690;2022-12-26T08:51:10;9.30;99.90
64634;DHT22;51043;52.406;9.690;2022-12-26T08:53:37;9.30;99.90
64634;DHT22;51043;52.406;9.690;2022-12-26T08:56:07;9.30;99.90
64634;DHT22;51043;52.406;9.690;2022-12-26T08:58:34;9.20;99.90
64634;DHT22;51043;52.406;9.690;2022-12-26T09:01:15;9.30;99.90
64634;DHT22;51043;52.406;9.690;2022-12-26T09:03:43;9.30;99.90
64634;DHT22;51043;52.406;9.690;2022-12-26T09:06:13;9.30;99.90
64634;DHT22;51043;52.406;9.690;2022-12-26T09:08:41;9.40;99.90
64634;DHT22;51043;52.406;9.690;2022-12-26T09:11:10;9.50;99.90
64634;DHT22;51043;52.406;9.690;2022-12-26T09:13:38;9.40;99.90
64634;DHT22;51043;52.406;9.690;2022-12-26T09:18:41;9.40;99.90
64634;DHT22;51043;52.406;9.690;2022-12-26T09:21:10;9.40;99.90
64634;DHT22;51043;52.406;9.690;2022-12-26T09:23:38;9.50;99.90
64634;DHT22;51043;52.406;9.690;2022-12-26T09:26:10;9.50;99.90
64634;DHT22;51043;52.406;9.690;2022-12-26T09:28:39;9.60;99.90
64634;DHT22;51043;52.406;9.690;2022-12-26T09:31:10;9.60;99.90
64634;DHT22;51043;52.406;9.690;2022-12-26T09:33:38;9.60;99.90
64634;DHT22;51043;52.406;9.690;2022-12-26T09:36:07;9.60;99.90
64634;DHT22;51043;52.406;9.690;2022-12-26T09:38:38;9.60;99.90
64634;DHT22;51043;52.406;9.690;2022-12-26T09:46:38;9.70;99.90
64634;DHT22;51043;52.406;9.690;2022-12-26T09:49:18;9.80;99.90
64634;DHT22;51043;52.406;9.690;2022-12-26T09:51:48;9.80;99.90
64634;DHT22;51043;52.406;9.690;2022-12-26T09:54:38;9.70;99.90
64634;DHT22;51043;52.406;9.690;2022-12-26T09:57:16;9.80;99.90
64634;DHT22;51043;52.406;9.690;2022-12-26T09:59:56;9.80;99.90
64634;DHT22;51043;52.406;9.690;2022-12-26T10:02:25;9.90;99.90
64634;DHT22;51043;52.406;9.690;2022-12-26T10:04:53;10.00;99.90
64634;DHT22;51043;52.406;9.690;2022-12-26T10:07:38;10.00;99.90
64634;DHT22;51043;52.406;9.690;2022-12-26T10:13:16;10.20;99.90
64634;DHT22;51043;52.406;9.690;2022-12-26T10:15:57;10.20;99.90
64634;DHT22;51043;52.406;9.690;2022-12-26T10:18:50;10.20;99.90
64634;DHT22;51043;52.406;9.690;2022-12-26T10:21:34;10.20;99.90
64634;DHT22;51043;52.406;9.690;2022-12-26T10:24:11;10.20;99.90
64634;DHT22;51043;52.406;9.690;2022-12-26T10:26:43;10.20;99.90
64634;DHT22;51043;52.406;9.690;2022-12-26T10:31:58;10.40;99.90
64634;DHT22;51043;52.406;9.690;2022-12-26T10:34:47;10.40;99.90
64634;DHT22;51043;52.406;9.690;2022-12-26T10:37:34;10.40;99.90
64634;DHT22;51043;52.406;9.690;2022-12-26T10:40:39;10.40;99.90
64634;DHT22;51043;52.406;9.690;2022-12-26T10:46:08;10.50;99.90
64634;DHT22;51043;52.406;9.690;2022-12-26T10:48:37;10.50;99.90
64634;DHT22;51043;52.406;9.690;2022-12-26T10:51:04;10.60;99.90
64634;DHT22;51043;52.406;9.690;2022-12-26T10:53:41;10.70;99.90
64634;DHT22;51043;52.406;9.690;2022-12-26T10:56:10;10.80;99.90
64634;DHT22;51043;52.406;9.690;2022-12-26T10:58:40;11.00;99.90
64634;DHT22;51043;52.406;9.690;2022-12-26T11:03:58;11.00;99.90
64634;DHT22;51043;52.406;9.690;2022-12-26T11:06:30;11.00;99.90
64634;DHT22;51043;52.406;9.690;2022-12-26T11:08:58;10.80;99.90
64634;DHT22;51043;52.406;9.690;2022-12-26T11:11:29;10.60;99.90
64634;DHT22;51043;52.406;9.690;2022-12-26T11:14:28;10.50;99.90
64634;DHT22;51043;52.406;9.690;2022-12-26T11:17:05;10.40;99.90
64634;DHT22;51043;52.406;9.690;2022-12-26T11:19:35;10.40;99.90
64634;DHT22;51043;52.406;9.690;2022-12-26T11:25:16;10.50;99.90
64634;DHT22;51043;52.406;9.690;2022-12-26T11:27:56;10.90;99.90
64634;DHT22;51043;52.406;9.690;2022-12-26T11:30:30;11.20;99.90
64634;DHT22;51043;52.406;9.690;2022-12-26T11:33:22;11.20;99.90
64634;DHT22;51043;52.406;9.690;2022-12-26T11:35:54;11.00;99.90
64634;DHT22;51043;52.406;9.690;2022-12-26T11:38:23;10.90;99.90
64634;DHT22;51043;52.406;9.690;2022-12-26T11:41:10;10.90;99.90
64634;DHT22;51043;52.406;9.690;2022-12-26T11:44:15;11.00;99.90
64634;DHT22;51043;52.406;9.690;2022-12-26T11:49:29;11.00;99.90
64634;DHT22;51043;52.406;9.690;2022-12-26T11:51:59;11.00;99.90
64634;DHT22;51043;52.406;9.690;2022-12-26T11:54:29;11.00;99.90
64634;DHT22;51043;52.406;9.690;2022-12-26T11:57:31;11.00;99.90
64634;DHT22;51043;52.406;9.690;2022-12-26T12:00:19;11.00;99.90
64634;DHT22;51043;52.406;9.690;2022-12-26T12:02:47;10.90;99.90
64634;DHT22;51043;52.406;9.690;2022-12-26T12:14:18;10.60;99.90
64634;DHT22;51043;52.406;9.690;2022-12-26T12:19:50;10.50;99.90
64634;DHT22;51043;52.406;9.690;2022-12-26T12:28:27;10.70;99.90
64634;DHT22;51043;52.406;9.690;2022-12-26T12:45:17;11.10;99.90
64634;DHT22;51043;52.406;9.690;2022-12-26T12:50:57;11.10;99.90
64634;DHT22;51043;52.406;9.690;2022-12-26T12:56:36;10.90;99.90
64634;DHT22;51043;52.406;9.690;2022-12-26T12:59:39;10.90;99.90
64634;DHT22;51043;52.406;9.690;2022-12-26T13:02:19;10.80;99.90
64634;DHT22;51043;52.406;9.690;2022-12-26T13:04:57;10.90;99.90
64634;DHT22;51043;52.406;9.690;2022-12-26T13:07:35;10.80;99.90
64634;DHT22;51043;52.406;9.690;2022-12-26T13:10:48;10.90;99.90
64634;DHT22;51043;52.406;9.690;2022-12-26T13:13:27;10.90;99.90
64634;DHT22;51043;52.406;9.690;2022-12-26T13:15:59;10.90;99.90
64634;DHT22;51043;52.406;9.690;2022-12-26T13:18:38;10.90;99.90
64634;DHT22;51043;52.406;9.690;2022-12-26T13:21:09;10.90;99.90
64634;DHT22;51043;52.406;9.690;2022-12-26T13:27:24;10.90;99.90
64634;DHT22;51043;52.406;9.690;2022-12-26T13:29:45;11.10;99.90
64634;DHT22;51043;52.406;9.690;2022-12-26T13:32:22;11.10;99.90
64634;DHT22;51043;52.406;9.690;2022-12-26T13:34:51;11.00;99.90
64634;DHT22;51043;52.406;9.690;2022-12-26T13:40:17;11.00;99.90
64634;DHT22;51043;52.406;9.690;2022-12-26T13:43:32;10.90;99.90
64634;DHT22;51043;52.406;9.690;2022-12-26T13:45:55;10.80;99.90
64634;DHT22;51043;52.406;9.690;2022-12-26T13:51:03;10.20;99.90
64634;DHT22;51043;52.406;9.690;2022-12-26T13:53:41;9.70;99.90
64634;DHT22;51043;52.406;9.690;2022-12-26T13:59:21;9.10;99.90
64634;DHT22;51043;52.406;9.690;2022-12-26T14:14:24;8.70;99.90
64634;DHT22;51043;52.406;9.690;2022-12-26T14:16:30;8.70;99.90
64634;DHT22;51043;52.406;9.690;2022-12-26T14:19:13;8.70;99.90
64634;DHT22;51043;52.406;9.690;2022-12-26T14:45:38;7.90;99.90
64634;DHT22;51043;52.406;9.690;2022-12-26T14:53:35;7.50;99.90
64634;DHT22;51043;52.406;9.690;2022-12-26T14:58:48;7.10;99.90
64634;DHT22;51043;52.406;9.690;2022-12-26T15:07:12;7.30;99.90
64634;DHT22;51043;52.406;9.690;2022-12-26T15:10:01;7.20;99.90
64634;DHT22;51043;52.406;9.690;2022-12-26T15:12:54;7.20;99.90
64634;DHT22;51043;52.406;9.690;2022-12-26T15:25:04;7.10;99.90
64634;DHT22;51043;52.406;9.690;2022-12-26T15:33:16;7.00;99.90
64634;DHT22;51043;52.406;9.690;2022-12-26T15:35:53;6.90;99.90
64634;DHT22;51043;52.406;9.690;2022-12-26T15:49:57;6.80;99.90
64634;DHT22;51043;52.406;9.690;2022-12-26T15:52:49;6.80;99.90
64634;DHT22;51043;52.406;9.690;2022-12-26T15:58:40;6.50;99.90
64634;DHT22;51043;52.406;9.690;2022-12-26T16:01:12;6.30;99.90
64634;DHT22;51043;52.406;9.690;2022-12-26T16:03:59;6.40;99.90
64634;DHT22;51043;52.406;9.690;2022-12-26T16:06:58;6.30;99.90
64634;DHT22;51043;52.406;9.690;2022-12-26T16:12:27;6.30;99.90
64634;DHT22;51043;52.406;9.690;2022-12-26T16:15:20;6.20;99.90
64634;DHT22;51043;52.406;9.690;2022-12-26T16:17:50;6.20;99.90
64634;DHT22;51043;52.406;9.690;2022-12-26T16:23:19;6.10;99.90
64634;DHT22;51043;52.406;9.690;2022-12-26T16:25:51;6.20;99.90
64634;DHT22;51043;52.406;9.690;2022-12-26T16:28:35;6.10;99.90
64634;DHT22;51043;52.406;9.690;2022-12-26T16:31:04;6.20;99.90
64634;DHT22;51043;52.406;9.690;2022-12-26T16:33:39;6.10;99.90
64634;DHT22;51043;52.406;9.690;2022-12-26T16:36:19;6.20;99.90
64634;DHT22;51043;52.406;9.690;2022-12-26T16:38:46;6.20;99.90
64634;DHT22;51043;52.406;9.690;2022-12-26T16:43:48;6.20;99.90
64634;DHT22;51043;52.406;9.690;2022-12-26T16:46:15;6.20;99.90
64634;DHT22;51043;52.406;9.690;2022-12-26T16:48:59;6.20;99.90
64634;DHT22;51043;52.406;9.690;2022-12-26T16:51:45;6.10;99.90
64634;DHT22;51043;52.406;9.690;2022-12-26T16:54:37;6.10;99.90
64634;DHT22;51043;52.406;9.690;2022-12-26T16:57:09;6.20;99.90
64634;DHT22;51043;52.406;9.690;2022-12-26T16:59:50;6.20;99.90
64634;DHT22;51043;52.406;9.690;2022-12-26T17:02:25;6.20;99.90
64634;DHT22;51043;52.406;9.690;2022-12-26T17:05:01;6.20;99.90
64634;DHT22;51043;52.406;9.690;2022-12-26T17:07:30;6.10;99.90
64634;DHT22;51043;52.406;9.690;2022-12-26T17:09:59;6.10;99.90
64634;DHT22;51043;52.406;9.690;2022-12-26T17:12:33;6.00;99.90
64634;DHT22;51043;52.406;9.690;2022-12-26T17:15:01;6.00;99.90
64634;DHT22;51043;52.406;9.690;2022-12-26T17:17:35;5.70;99.90
64634;DHT22;51043;52.406;9.690;2022-12-26T17:22:57;5.50;99.90
64634;DHT22;51043;52.406;9.690;2022-12-26T17:25:31;5.30;99.90
64634;DHT22;51043;52.406;9.690;2022-12-26T17:30:48;5.20;99.90
64634;DHT22;51043;52.406;9.690;2022-12-26T17:33:22;5.20;99.90
64634;DHT22;51043;52.406;9.690;2022-12-26T17:36:04;5.10;99.90
64634;DHT22;51043;52.406;9.690;2022-12-26T17:38:53;5.00;99.90
64634;DHT22;51043;52.406;9.690;2022-12-26T17:41:20;4.90;99.90
64634;DHT22;51043;52.406;9.690;2022-12-26T17:43:48;4.80;99.90
64634;DHT22;51043;52.406;9.690;2022-12-26T17:46:16;4.80;99.90
64634;DHT22;51043;52.406;9.690;2022-12-26T17:48:43;4.70;99.90
64634;DHT22;51043;52.406;9.690;2022-12-26T17:51:14;4.70;99.90
64634;DHT22;51043;52.406;9.690;2022-12-26T17:53:47;4.70;99.90
64634;DHT22;51043;52.406;9.690;2022-12-26T17:56:17;4.50;99.90
64634;DHT22;51043;52.406;9.690;2022-12-26T17:58:47;4.50;99.90
64634;DHT22;51043;52.406;9.690;2022-12-26T18:01:14;4.40;99.90
64634;DHT22;51043;52.406;9.690;2022-12-26T18:03:46;4.30;99.90
64634;DHT22;51043;52.406;9.690;2022-12-26T18:06:14;4.20;99.90
64634;DHT22;51043;52.406;9.690;2022-12-26T18:08:42;4.20;99.90
64634;DHT22;51043;52.406;9.690;2022-12-26T18:11:11;4.30;99.90
64634;DHT22;51043;52.406;9.690;2022-12-26T18:13:38;4.40;99.90
64634;DHT22;51043;52.406;9.690;2022-12-26T18:16:06;4.50;99.90
64634;DHT22;51043;52.406;9.690;2022-12-26T18:18:39;4.60;99.90
64634;DHT22;51043;52.406;9.690;2022-12-26T18:21:12;4.60;99.90
64634;DHT22;51043;52.406;9.690;2022-12-26T18:23:39;4.50;99.90
64634;DHT22;51043;52.406;9.690;2022-12-26T18:26:13;4.40;99.90
64634;DHT22;51043;52.406;9.690;2022-12-26T18:28:40;4.30;99.90
64634;DHT22;51043;52.406;9.690;2022-12-26T18:31:12;4.30;99.90
64634;DHT22;51043;52.406;9.690;2022-12-26T18:33:40;4.30;99.90
64634;DHT22;51043;52.406;9.690;2022-12-26T18:36:12;4.20;99.90
64634;DHT22;51043;52.406;9.690;2022-12-26T18:38:40;4.10;99.90
64634;DHT22;51043;52.406;9.690;2022-12-26T18:41:13;4.10;99.90
64634;DHT22;51043;52.406;9.690;2022-12-26T18:43:40;4.10;99.90
64634;DHT22;51043;52.406;9.690;2022-12-26T18:46:22;4.00;99.90
64634;DHT22;51043;52.406;9.690;2022-12-26T18:48:50;3.90;99.90
64634;DHT22;51043;52.406;9.690;2022-12-26T18:51:20;3.80;99.90
64634;DHT22;51043;52.406;9.690;2022-12-26T18:53:47;3.80;99.90
64634;DHT22;51043;52.406;9.690;2022-12-26T18:56:16;3.80;99.90
64634;DHT22;51043;52.406;9.690;2022-12-26T18:58:47;3.80;99.90
64634;DHT22;51043;52.406;9.690;2022-12-26T19:01:18;3.70;99.90
64634;DHT22;51043;52.406;9.690;2022-12-26T19:03:45;3.70;99.90
64634;DHT22;51043;52.406;9.690;2022-12-26T19:06:22;3.60;99.90
64634;DHT22;51043;52.406;9.690;2022-12-26T19:08:49;3.60;99.90
64634;DHT22;51043;52.406;9.690;2022-12-26T19:11:15;3.40;99.90
64634;DHT22;51043;52.406;9.690;2022-12-26T19:13:42;3.30;99.90
64634;DHT22;51043;52.406;9.690;2022-12-26T19:16:09;3.40;99.90
64634;DHT22;51043;52.406;9.690;2022-12-26T19:18:36;3.40;99.90
64634;DHT22;51043;52.406;9.690;2022-12-26T19:21:03;3.30;99.90
64634;DHT22;51043;52.406;9.690;2022-12-26T19:23:30;3.30;99.90
64634;DHT22;51043;52.406;9.690;2022-12-26T19:25:57;3.30;99.90
64634;DHT22;51043;52.406;9.690;2022-12-26T19:28:24;3.30;99.90
64634;DHT22;51043;52.406;9.690;2022-12-26T19:30:50;3.40;99.90
64634;DHT22;51043;52.406;9.690;2022-12-26T19:33:18;3.40;99.90
64634;DHT22;51043;52.406;9.690;2022-12-26T19:35:45;3.40;99.90
64634;DHT22;51043;52.406;9.690;2022-12-26T19:38:12;3.30;99.90
64634;DHT22;51043;52.406;9.690;2022-12-26T19:40:39;3.40;99.90
64634;DHT22;51043;52.406;9.690;2022-12-26T19:43:06;3.50;99.90
64634;DHT22;51043;52.406;9.690;2022-12-26T19:45:33;3.40;99.90
64634;DHT22;51043;52.406;9.690;2022-12-26T19:48:00;3.20;99.90
64634;DHT22;51043;52.406;9.690;2022-12-26T19:50:26;3.20;99.90
64634;DHT22;51043;52.406;9.690;2022-12-26T19:52:53;3.40;99.90
64634;DHT22;51043;52.406;9.690;2022-12-26T19:55:22;3.40;99.90
64634;DHT22;51043;52.406;9.690;2022-12-26T19:57:49;3.40;99.90